sensor_id;sensor_type;location;lat;lon;timestamp;pressure;altitude;pressure_sealevel;temperature;humidity
59009;BME280;44794;42.652;23.318;2023-05-09T00:02:03;94757.47;;;12.27;100.00
59009;BME280;44794;42.652;23.318;2023-05-09T00:04:29;94742.09;;;12.24;100.00
59009;BME280;44794;42.652;23.318;2023-05-09T00:06:54;94736.19;;;12.22;100.00
59009;BME280;44794;42.652;23.318;2023-05-09T00:09:20;94734.03;;;12.27;100.00
59009;BME280;44794;42.652;23.318;2023-05-09T00:11:45;94735.59;;;12.29;100.00
59009;BME280;44794;42.652;23.318;2023-05-09T00:14:11;94741.50;;;12.31;100.00
59009;BME280;44794;42.652;23.318;2023-05-09T00:16:39;94738.66;;;12.23;100.00
59009;BME280;44794;42.652;23.318;2023-05-09T00:19:05;94739.84;;;12.30;100.00
59009;BME280;44794;42.652;23.318;2023-05-09T00:21:31;94744.19;;;12.41;100.00
59009;BME280;44794;42.652;23.318;2023-05-09T00:23:56;94738.91;;;12.42;100.00
59009;BME280;44794;42.652;23.318;2023-05-09T00:26:22;94733.66;;;12.53;100.00
59009;BME280;44794;42.652;23.318;2023-05-09T00:28:47;94725.13;;;12.62;100.00
59009;BME280;44794;42.652;23.318;2023-05-09T00:31:13;94737.66;;;12.68;99.45
59009;BME280;44794;42.652;23.318;2023-05-09T00:33:38;94742.41;;;12.63;98.16
59009;BME280;44794;42.652;23.318;2023-05-09T00:36:04;94745.13;;;12.62;97.37
59009;BME280;44794;42.652;23.318;2023-05-09T00:38:30;94748.22;;;12.67;96.89
59009;BME280;44794;42.652;23.318;2023-05-09T00:40:55;94746.78;;;12.63;96.71
59009;BME280;44794;42.652;23.318;2023-05-09T00:43:21;94747.72;;;12.73;96.95
59009;BME280;44794;42.652;23.318;2023-05-09T00:45:46;94749.75;;;12.69;96.06
59009;BME280;44794;42.652;23.318;2023-05-09T00:48:14;94744.25;;;12.72;96.98
59009;BME280;44794;42.652;23.318;2023-05-09T00:50:39;94750.19;;;12.74;97.32
59009;BME280;44794;42.652;23.318;2023-05-09T00:53:05;94748.44;;;12.74;97.00
59009;BME280;44794;42.652;23.318;2023-05-09T00:55:32;94749.13;;;12.76;97.01
59009;BME280;44794;42.652;23.318;2023-05-09T00:57:57;94754.31;;;12.76;96.71
59009;BME280;44794;42.652;23.318;2023-05-09T01:00:23;94748.44;;;12.74;96.31
59009;BME280;44794;42.652;23.318;2023-05-09T01:02:52;94751.03;;;12.74;95.84
59009;BME280;44794;42.652;23.318;2023-05-09T01:05:18;94751.84;;;12.75;95.90
59009;BME280;44794;42.652;23.318;2023-05-09T01:12:54;94740.88;;;12.50;98.51
59009;BME280;44794;42.652;23.318;2023-05-09T01:18:27;94742.09;;;12.35;99.69
59009;BME280;44794;42.652;23.318;2023-05-09T01:21:05;94739.25;;;12.27;100.00
59009;BME280;44794;42.652;23.318;2023-05-09T01:26:16;94728.84;;;12.16;100.00
59009;BME280;44794;42.652;23.318;2023-05-09T01:31:21;94726.38;;;11.93;100.00
59009;BME280;44794;42.652;23.318;2023-05-09T01:33:54;94721.63;;;11.87;100.00
59009;BME280;44794;42.652;23.318;2023-05-09T01:36:21;94719.84;;;11.87;100.00
59009;BME280;44794;42.652;23.318;2023-05-09T01:38:50;94729.78;;;11.93;100.00
59009;BME280;44794;42.652;23.318;2023-05-09T01:41:17;94727.31;;;11.92;100.00
59009;BME280;44794;42.652;23.318;2023-05-09T01:43:45;94721.97;;;11.93;100.00
59009;BME280;44794;42.652;23.318;2023-05-09T01:46:11;94721.16;;;11.93;100.00
59009;BME280;44794;42.652;23.318;2023-05-09T01:48:38;94722.47;;;11.98;100.00
59009;BME280;44794;42.652;23.318;2023-05-09T01:51:06;94729.81;;;12.04;100.00
59009;BME280;44794;42.652;23.318;2023-05-09T01:53:33;94726.94;;;12.07;100.00
59009;BME280;44794;42.652;23.318;2023-05-09T01:56:01;94737.34;;;12.07;100.00
59009;BME280;44794;42.652;23.318;2023-05-09T01:58:30;94741.75;;;12.06;100.00
59009;BME280;44794;42.652;23.318;2023-05-09T02:00:56;94740.47;;;12.12;100.00
59009;BME280;44794;42.652;23.318;2023-05-09T02:03:24;94741.28;;;12.12;100.00
59009;BME280;44794;42.652;23.318;2023-05-09T02:05:50;94733.59;;;12.11;100.00
59009;BME280;44794;42.652;23.318;2023-05-09T02:08:17;94739.97;;;12.07;100.00
59009;BME280;44794;42.652;23.318;2023-05-09T02:10:46;94735.81;;;12.04;100.00
59009;BME280;44794;42.652;23.318;2023-05-09T02:13:12;94740.22;;;12.04;100.00
59009;BME280;44794;42.652;23.318;2023-05-09T02:15:38;94737.72;;;12.02;100.00
59009;BME280;44794;42.652;23.318;2023-05-09T02:18:04;94735.94;;;12.03;100.00
59009;BME280;44794;42.652;23.318;2023-05-09T02:20:30;94722.09;;;12.02;100.00
59009;BME280;44794;42.652;23.318;2023-05-09T02:22:56;94734.06;;;12.05;100.00
59009;BME280;44794;42.652;23.318;2023-05-09T02:25:21;94725.53;;;12.03;100.00
59009;BME280;44794;42.652;23.318;2023-05-09T02:27:47;94728.97;;;12.03;100.00
59009;BME280;44794;42.652;23.318;2023-05-09T02:30:17;94720.81;;;12.08;100.00
59009;BME280;44794;42.652;23.318;2023-05-09T02:32:46;94734.41;;;12.11;100.00
59009;BME280;44794;42.652;23.318;2023-05-09T02:35:14;94736.88;;;12.13;100.00
59009;BME280;44794;42.652;23.318;2023-05-09T02:37:41;94731.09;;;12.09;100.00
59009;BME280;44794;42.652;23.318;2023-05-09T02:40:07;94729.19;;;12.11;100.00
59009;BME280;44794;42.652;23.318;2023-05-09T02:42:34;94727.19;;;12.15;100.00
59009;BME280;44794;42.652;23.318;2023-05-09T02:44:59;94722.09;;;12.13;100.00
59009;BME280;44794;42.652;23.318;2023-05-09T02:47:25;94716.91;;;12.13;100.00
59009;BME280;44794;42.652;23.318;2023-05-09T02:49:50;94722.22;;;12.12;100.00
59009;BME280;44794;42.652;23.318;2023-05-09T02:52:16;94726.47;;;12.13;100.00
59009;BME280;44794;42.652;23.318;2023-05-09T02:54:41;94732.25;;;12.16;100.00
59009;BME280;44794;42.652;23.318;2023-05-09T02:57:07;94723.50;;;12.17;100.00
59009;BME280;44794;42.652;23.318;2023-05-09T02:59:32;94726.72;;;12.21;100.00
59009;BME280;44794;42.652;23.318;2023-05-09T03:01:58;94730.50;;;12.17;100.00
59009;BME280;44794;42.652;23.318;2023-05-09T03:04:23;94733.34;;;12.14;100.00
59009;BME280;44794;42.652;23.318;2023-05-09T03:06:51;94731.22;;;12.19;100.00
59009;BME280;44794;42.652;23.318;2023-05-09T03:09:17;94734.28;;;12.24;100.00
59009;BME280;44794;42.652;23.318;2023-05-09T03:11:42;94742.91;;;12.24;100.00
59009;BME280;44794;42.652;23.318;2023-05-09T03:14:08;94739.50;;;12.24;100.00
59009;BME280;44794;42.652;23.318;2023-05-09T03:16:35;94732.84;;;12.20;100.00
59009;BME280;44794;42.652;23.318;2023-05-09T03:19:01;94741.66;;;12.19;100.00
59009;BME280;44794;42.652;23.318;2023-05-09T03:21:27;94750.13;;;12.21;100.00
59009;BME280;44794;42.652;23.318;2023-05-09T03:23:52;94746.47;;;12.23;100.00
59009;BME280;44794;42.652;23.318;2023-05-09T03:26:18;94760.06;;;12.27;100.00
59009;BME280;44794;42.652;23.318;2023-05-09T03:28:43;94760.19;;;12.25;100.00
59009;BME280;44794;42.652;23.318;2023-05-09T03:31:10;94758.88;;;12.20;100.00
59009;BME280;44794;42.652;23.318;2023-05-09T03:33:36;94764.34;;;12.17;100.00
59009;BME280;44794;42.652;23.318;2023-05-09T03:36:01;94764.69;;;12.12;100.00
59009;BME280;44794;42.652;23.318;2023-05-09T03:38:26;94777.38;;;12.17;100.00
59009;BME280;44794;42.652;23.318;2023-05-09T03:40:52;94781.16;;;12.24;100.00
59009;BME280;44794;42.652;23.318;2023-05-09T03:43:18;94781.88;;;12.26;100.00
59009;BME280;44794;42.652;23.318;2023-05-09T03:45:43;94777.63;;;12.25;100.00
59009;BME280;44794;42.652;23.318;2023-05-09T03:48:09;94774.06;;;12.26;100.00
59009;BME280;44794;42.652;23.318;2023-05-09T03:50:35;94781.28;;;12.22;100.00
59009;BME280;44794;42.652;23.318;2023-05-09T03:53:01;94779.50;;;12.23;100.00
59009;BME280;44794;42.652;23.318;2023-05-09T03:55:26;94783.75;;;12.24;100.00
59009;BME280;44794;42.652;23.318;2023-05-09T03:57:52;94778.66;;;12.33;100.00
59009;BME280;44794;42.652;23.318;2023-05-09T04:00:19;94784.00;;;12.43;100.00
59009;BME280;44794;42.652;23.318;2023-05-09T04:02:45;94792.38;;;12.46;100.00
59009;BME280;44794;42.652;23.318;2023-05-09T04:05:11;94800.31;;;12.56;100.00
59009;BME280;44794;42.652;23.318;2023-05-09T04:07:36;94795.09;;;12.56;100.00
59009;BME280;44794;42.652;23.318;2023-05-09T04:10:02;94799.72;;;12.63;100.00
59009;BME280;44794;42.652;23.318;2023-05-09T04:12:27;94791.56;;;12.68;100.00
59009;BME280;44794;42.652;23.318;2023-05-09T04:14:53;94803.84;;;12.76;99.88
59009;BME280;44794;42.652;23.318;2023-05-09T04:17:18;94795.09;;;12.88;99.40
59009;BME280;44794;42.652;23.318;2023-05-09T04:19:44;94800.16;;;12.79;98.14
59009;BME280;44794;42.652;23.318;2023-05-09T04:22:09;94801.59;;;12.72;98.55
59009;BME280;44794;42.652;23.318;2023-05-09T04:24:35;94806.72;;;12.73;98.74
59009;BME280;44794;42.652;23.318;2023-05-09T04:27:00;94797.56;;;12.79;98.20
59009;BME280;44794;42.652;23.318;2023-05-09T04:29:26;94798.41;;;12.90;97.96
59009;BME280;44794;42.652;23.318;2023-05-09T04:31:52;94792.91;;;13.04;97.46
59009;BME280;44794;42.652;23.318;2023-05-09T04:34:17;94797.03;;;13.18;96.82
59009;BME280;44794;42.652;23.318;2023-05-09T04:36:43;94802.78;;;13.32;95.77
59009;BME280;44794;42.652;23.318;2023-05-09T04:39:08;94807.72;;;13.46;94.91
59009;BME280;44794;42.652;23.318;2023-05-09T04:41:35;94810.59;;;13.63;94.38
59009;BME280;44794;42.652;23.318;2023-05-09T04:44:00;94818.38;;;13.74;93.47
59009;BME280;44794;42.652;23.318;2023-05-09T04:46:26;94822.41;;;13.99;91.67
59009;BME280;44794;42.652;23.318;2023-05-09T04:48:52;94830.94;;;14.21;89.66
59009;BME280;44794;42.652;23.318;2023-05-09T04:51:17;94849.47;;;14.38;88.27
59009;BME280;44794;42.652;23.318;2023-05-09T04:53:43;94843.94;;;14.62;86.70
59009;BME280;44794;42.652;23.318;2023-05-09T04:56:09;94848.38;;;14.61;85.01
59009;BME280;44794;42.652;23.318;2023-05-09T04:58:35;94856.78;;;14.44;84.11
59009;BME280;44794;42.652;23.318;2023-05-09T05:01:03;94844.72;;;14.53;84.52
59009;BME280;44794;42.652;23.318;2023-05-09T05:03:29;94849.47;;;14.59;83.88
59009;BME280;44794;42.652;23.318;2023-05-09T05:05:55;94847.44;;;14.72;84.13
59009;BME280;44794;42.652;23.318;2023-05-09T05:08:20;94846.19;;;14.66;83.08
59009;BME280;44794;42.652;23.318;2023-05-09T05:10:46;94846.09;;;14.47;83.15
59009;BME280;44794;42.652;23.318;2023-05-09T05:13:13;94849.09;;;14.43;83.14
59009;BME280;44794;42.652;23.318;2023-05-09T05:15:38;94837.34;;;14.58;84.00
59009;BME280;44794;42.652;23.318;2023-05-09T05:18:04;94849.94;;;14.83;81.12
59009;BME280;44794;42.652;23.318;2023-05-09T05:20:29;94857.00;;;14.92;79.47
59009;BME280;44794;42.652;23.318;2023-05-09T05:22:55;94854.66;;;15.28;78.71
59009;BME280;44794;42.652;23.318;2023-05-09T05:25:21;94861.06;;;15.63;76.61
59009;BME280;44794;42.652;23.318;2023-05-09T05:27:47;94865.59;;;15.52;76.32
59009;BME280;44794;42.652;23.318;2023-05-09T05:30:13;94868.19;;;15.33;76.04
59009;BME280;44794;42.652;23.318;2023-05-09T05:32:40;94873.34;;;15.81;75.20
59009;BME280;44794;42.652;23.318;2023-05-09T05:35:05;94880.38;;;15.90;73.34
59009;BME280;44794;42.652;23.318;2023-05-09T05:37:31;94874.50;;;15.30;75.08
59009;BME280;44794;42.652;23.318;2023-05-09T05:39:56;94880.22;;;15.15;76.72
59009;BME280;44794;42.652;23.318;2023-05-09T05:42:22;94878.69;;;15.03;77.31
59009;BME280;44794;42.652;23.318;2023-05-09T05:44:47;94881.00;;;15.06;77.54
59009;BME280;44794;42.652;23.318;2023-05-09T05:47:12;94875.69;;;15.17;77.55
59009;BME280;44794;42.652;23.318;2023-05-09T05:49:38;94879.50;;;15.03;77.38
59009;BME280;44794;42.652;23.318;2023-05-09T05:52:04;94868.97;;;14.85;78.45
59009;BME280;44794;42.652;23.318;2023-05-09T05:54:29;94874.66;;;14.99;79.16
59009;BME280;44794;42.652;23.318;2023-05-09T05:56:55;94875.25;;;15.12;78.82
59009;BME280;44794;42.652;23.318;2023-05-09T05:59:20;94887.88;;;15.37;78.67
59009;BME280;44794;42.652;23.318;2023-05-09T06:01:46;94889.53;;;15.28;77.65
59009;BME280;44794;42.652;23.318;2023-05-09T06:04:11;94879.84;;;14.90;79.36
59009;BME280;44794;42.652;23.318;2023-05-09T06:06:37;94882.91;;;14.65;80.53
59009;BME280;44794;42.652;23.318;2023-05-09T06:09:02;94872.09;;;14.49;81.80
59009;BME280;44794;42.652;23.318;2023-05-09T06:11:28;94877.38;;;14.58;82.31
59009;BME280;44794;42.652;23.318;2023-05-09T06:13:53;94872.91;;;14.49;81.62
59009;BME280;44794;42.652;23.318;2023-05-09T06:16:19;94870.38;;;14.38;82.23
59009;BME280;44794;42.652;23.318;2023-05-09T06:18:45;94865.59;;;14.43;82.92
59009;BME280;44794;42.652;23.318;2023-05-09T06:21:11;94870.31;;;14.79;81.50
59009;BME280;44794;42.652;23.318;2023-05-09T06:23:36;94874.91;;;14.87;81.07
59009;BME280;44794;42.652;23.318;2023-05-09T06:26:02;94879.03;;;14.89;80.18
59009;BME280;44794;42.652;23.318;2023-05-09T06:28:28;94883.03;;;14.63;80.58
59009;BME280;44794;42.652;23.318;2023-05-09T06:30:53;94876.44;;;14.69;80.67
59009;BME280;44794;42.652;23.318;2023-05-09T06:33:19;94886.38;;;14.75;80.16
59009;BME280;44794;42.652;23.318;2023-05-09T06:35:44;94884.56;;;15.05;79.85
59009;BME280;44794;42.652;23.318;2023-05-09T06:38:10;94879.19;;;15.27;77.92
59009;BME280;44794;42.652;23.318;2023-05-09T06:40:35;94882.81;;;15.45;76.92
59009;BME280;44794;42.652;23.318;2023-05-09T06:43:01;94883.34;;;15.39;75.92
59009;BME280;44794;42.652;23.318;2023-05-09T06:45:26;94884.72;;;15.43;75.41
59009;BME280;44794;42.652;23.318;2023-05-09T06:47:52;94886.72;;;15.97;75.18
59009;BME280;44794;42.652;23.318;2023-05-09T06:50:17;94882.88;;;16.01;72.26
59009;BME280;44794;42.652;23.318;2023-05-09T06:52:43;94882.88;;;15.92;72.42
59009;BME280;44794;42.652;23.318;2023-05-09T06:55:09;94891.81;;;16.27;71.56
59009;BME280;44794;42.652;23.318;2023-05-09T06:57:35;94897.47;;;15.94;71.21
59009;BME280;44794;42.652;23.318;2023-05-09T07:00:00;94899.97;;;16.34;69.45
59009;BME280;44794;42.652;23.318;2023-05-09T07:02:25;94889.19;;;16.27;68.81
59009;BME280;44794;42.652;23.318;2023-05-09T07:04:51;94898.88;;;16.36;68.18
59009;BME280;44794;42.652;23.318;2023-05-09T07:07:16;94897.34;;;16.43;67.48
59009;BME280;44794;42.652;23.318;2023-05-09T07:09:42;94886.69;;;16.54;68.87
59009;BME280;44794;42.652;23.318;2023-05-09T07:12:07;94890.78;;;16.75;68.00
59009;BME280;44794;42.652;23.318;2023-05-09T07:14:33;94889.34;;;16.35;67.93
59009;BME280;44794;42.652;23.318;2023-05-09T07:16:58;94879.97;;;15.67;71.36
59009;BME280;44794;42.652;23.318;2023-05-09T07:19:23;94877.75;;;15.81;71.81
59009;BME280;44794;42.652;23.318;2023-05-09T07:21:49;94885.88;;;15.69;72.27
59009;BME280;44794;42.652;23.318;2023-05-09T07:24:14;94892.75;;;15.60;71.63
59009;BME280;44794;42.652;23.318;2023-05-09T07:26:40;94885.75;;;15.79;71.87
59009;BME280;44794;42.652;23.318;2023-05-09T07:29:06;94891.94;;;15.78;70.37
59009;BME280;44794;42.652;23.318;2023-05-09T07:31:31;94883.38;;;15.67;70.71
59009;BME280;44794;42.652;23.318;2023-05-09T07:33:57;94876.78;;;15.91;70.90
59009;BME280;44794;42.652;23.318;2023-05-09T07:36:22;94880.91;;;16.03;70.37
59009;BME280;44794;42.652;23.318;2023-05-09T07:38:48;94888.38;;;16.08;69.50
59009;BME280;44794;42.652;23.318;2023-05-09T07:41:16;94895.41;;;16.07;68.51
59009;BME280;44794;42.652;23.318;2023-05-09T07:43:41;94897.59;;;15.83;68.68
59009;BME280;44794;42.652;23.318;2023-05-09T07:46:07;94894.00;;;16.03;67.29
59009;BME280;44794;42.652;23.318;2023-05-09T07:48:32;94897.22;;;16.35;66.92
59009;BME280;44794;42.652;23.318;2023-05-09T07:50:58;94898.16;;;16.44;66.06
59009;BME280;44794;42.652;23.318;2023-05-09T07:53:23;94899.94;;;16.24;65.56
59009;BME280;44794;42.652;23.318;2023-05-09T07:55:49;94896.53;;;16.33;65.74
59009;BME280;44794;42.652;23.318;2023-05-09T07:58:16;94901.50;;;16.36;66.13
59009;BME280;44794;42.652;23.318;2023-05-09T08:00:41;94902.44;;;16.26;66.77
59009;BME280;44794;42.652;23.318;2023-05-09T08:03:07;94894.28;;;16.38;65.64
59009;BME280;44794;42.652;23.318;2023-05-09T08:05:32;94898.84;;;16.55;64.79
59009;BME280;44794;42.652;23.318;2023-05-09T08:07:58;94889.22;;;16.08;65.24
59009;BME280;44794;42.652;23.318;2023-05-09T08:10:23;94884.53;;;16.31;65.65
59009;BME280;44794;42.652;23.318;2023-05-09T08:12:51;94885.53;;;16.66;65.37
59009;BME280;44794;42.652;23.318;2023-05-09T08:15:16;94891.56;;;16.85;65.06
59009;BME280;44794;42.652;23.318;2023-05-09T08:17:42;94890.13;;;17.00;64.35
59009;BME280;44794;42.652;23.318;2023-05-09T08:20:11;94898.06;;;17.27;63.77
59009;BME280;44794;42.652;23.318;2023-05-09T08:22:38;94892.41;;;16.76;63.54
59009;BME280;44794;42.652;23.318;2023-05-09T08:25:04;94896.03;;;16.66;64.58
59009;BME280;44794;42.652;23.318;2023-05-09T08:27:30;94896.81;;;16.30;65.19
59009;BME280;44794;42.652;23.318;2023-05-09T08:29:55;94887.44;;;16.37;66.20
59009;BME280;44794;42.652;23.318;2023-05-09T08:32:21;94901.22;;;16.94;65.31
59009;BME280;44794;42.652;23.318;2023-05-09T08:34:46;94890.59;;;16.86;63.90
59009;BME280;44794;42.652;23.318;2023-05-09T08:37:12;94890.06;;;16.83;64.63
59009;BME280;44794;42.652;23.318;2023-05-09T08:39:37;94882.25;;;16.64;64.68
59009;BME280;44794;42.652;23.318;2023-05-09T08:42:03;94890.63;;;16.77;64.84
59009;BME280;44794;42.652;23.318;2023-05-09T08:44:29;94888.06;;;17.04;63.46
59009;BME280;44794;42.652;23.318;2023-05-09T08:46:58;94890.91;;;17.20;62.32
59009;BME280;44794;42.652;23.318;2023-05-09T08:49:24;94884.22;;;17.34;62.61
59009;BME280;44794;42.652;23.318;2023-05-09T08:51:50;94882.47;;;16.80;63.67
59009;BME280;44794;42.652;23.318;2023-05-09T08:54:16;94880.09;;;16.50;64.00
59009;BME280;44794;42.652;23.318;2023-05-09T08:56:41;94877.88;;;16.17;66.11
59009;BME280;44794;42.652;23.318;2023-05-09T08:59:08;94884.22;;;16.05;66.01
59009;BME280;44794;42.652;23.318;2023-05-09T09:01:33;94875.81;;;15.92;66.13
59009;BME280;44794;42.652;23.318;2023-05-09T09:04:05;94883.69;;;15.92;65.70
59009;BME280;44794;42.652;23.318;2023-05-09T09:06:32;94876.78;;;15.82;66.48
59009;BME280;44794;42.652;23.318;2023-05-09T09:08:59;94875.38;;;16.25;66.38
59009;BME280;44794;42.652;23.318;2023-05-09T09:11:30;94886.44;;;16.38;65.04
59009;BME280;44794;42.652;23.318;2023-05-09T09:14:01;94885.06;;;16.44;64.29
59009;BME280;44794;42.652;23.318;2023-05-09T09:16:31;94881.75;;;16.51;64.96
59009;BME280;44794;42.652;23.318;2023-05-09T09:18:57;94884.50;;;16.40;64.13
59009;BME280;44794;42.652;23.318;2023-05-09T09:21:23;94885.16;;;16.61;64.89
59009;BME280;44794;42.652;23.318;2023-05-09T09:23:49;94891.44;;;16.77;63.58
59009;BME280;44794;42.652;23.318;2023-05-09T09:26:15;94883.91;;;16.65;64.54
59009;BME280;44794;42.652;23.318;2023-05-09T09:28:41;94883.41;;;16.33;65.89
59009;BME280;44794;42.652;23.318;2023-05-09T09:31:23;94888.25;;;16.38;65.47
59009;BME280;44794;42.652;23.318;2023-05-09T09:33:49;94889.00;;;16.66;65.21
59009;BME280;44794;42.652;23.318;2023-05-09T09:36:24;94887.06;;;16.78;65.86
59009;BME280;44794;42.652;23.318;2023-05-09T09:38:55;94895.31;;;17.19;63.84
59009;BME280;44794;42.652;23.318;2023-05-09T09:43:57;94887.53;;;16.45;64.67
59009;BME280;44794;42.652;23.318;2023-05-09T09:46:23;94893.19;;;16.31;67.13
59009;BME280;44794;42.652;23.318;2023-05-09T09:48:48;94885.88;;;16.06;66.87
59009;BME280;44794;42.652;23.318;2023-05-09T09:51:18;94886.81;;;15.49;68.73
59009;BME280;44794;42.652;23.318;2023-05-09T09:53:45;94882.56;;;15.67;69.85
59009;BME280;44794;42.652;23.318;2023-05-09T09:56:11;94888.63;;;15.58;69.63
59009;BME280;44794;42.652;23.318;2023-05-09T09:58:37;94893.75;;;16.06;69.40
59009;BME280;44794;42.652;23.318;2023-05-09T10:01:07;94889.47;;;15.96;68.02
59009;BME280;44794;42.652;23.318;2023-05-09T10:06:02;94880.16;;;15.26;69.91
59009;BME280;44794;42.652;23.318;2023-05-09T10:08:27;94876.47;;;15.47;69.51
59009;BME280;44794;42.652;23.318;2023-05-09T10:10:52;94875.38;;;15.69;69.34
59009;BME280;44794;42.652;23.318;2023-05-09T10:13:19;94878.69;;;16.46;67.71
59009;BME280;44794;42.652;23.318;2023-05-09T10:15:45;94873.44;;;16.65;66.24
59009;BME280;44794;42.652;23.318;2023-05-09T10:18:11;94880.09;;;16.41;67.54
59009;BME280;44794;42.652;23.318;2023-05-09T10:20:39;94881.72;;;16.42;67.44
59009;BME280;44794;42.652;23.318;2023-05-09T10:23:06;94877.50;;;16.41;67.94
59009;BME280;44794;42.652;23.318;2023-05-09T10:25:46;94880.75;;;16.52;67.59
59009;BME280;44794;42.652;23.318;2023-05-09T10:28:17;94890.97;;;16.55;67.22
59009;BME280;44794;42.652;23.318;2023-05-09T10:30:51;94877.91;;;16.36;68.72
59009;BME280;44794;42.652;23.318;2023-05-09T10:33:25;94881.69;;;16.70;66.36
59009;BME280;44794;42.652;23.318;2023-05-09T10:35:53;94871.22;;;16.97;65.40
59009;BME280;44794;42.652;23.318;2023-05-09T10:38:21;94889.81;;;17.49;63.71
59009;BME280;44794;42.652;23.318;2023-05-09T10:40:46;94885.66;;;17.20;63.97
59009;BME280;44794;42.652;23.318;2023-05-09T10:43:15;94880.91;;;16.96;65.05
59009;BME280;44794;42.652;23.318;2023-05-09T10:45:41;94877.28;;;16.61;65.60
59009;BME280;44794;42.652;23.318;2023-05-09T10:48:07;94877.91;;;16.36;66.94
59009;BME280;44794;42.652;23.318;2023-05-09T10:50:34;94875.16;;;16.09;69.53
59009;BME280;44794;42.652;23.318;2023-05-09T10:53:08;94871.28;;;16.13;68.90
59009;BME280;44794;42.652;23.318;2023-05-09T10:58:30;94883.50;;;16.60;67.39
59009;BME280;44794;42.652;23.318;2023-05-09T11:00:59;94881.63;;;16.89;66.68
59009;BME280;44794;42.652;23.318;2023-05-09T11:03:25;94869.97;;;17.01;65.32
59009;BME280;44794;42.652;23.318;2023-05-09T11:05:54;94869.06;;;17.19;64.48
59009;BME280;44794;42.652;23.318;2023-05-09T11:08:24;94870.13;;;16.63;65.58
59009;BME280;44794;42.652;23.318;2023-05-09T11:10:52;94872.28;;;16.77;66.91
59009;BME280;44794;42.652;23.318;2023-05-09T11:13:19;94881.72;;;16.42;66.24
59009;BME280;44794;42.652;23.318;2023-05-09T11:18:27;94874.72;;;16.88;64.03
59009;BME280;44794;42.652;23.318;2023-05-09T11:20:56;94872.28;;;16.77;66.61
59009;BME280;44794;42.652;23.318;2023-05-09T11:23:25;94866.69;;;17.26;65.21
59009;BME280;44794;42.652;23.318;2023-05-09T11:25:51;94880.78;;;17.51;62.91
59009;BME280;44794;42.652;23.318;2023-05-09T11:28:28;94881.72;;;16.60;63.60
59009;BME280;44794;42.652;23.318;2023-05-09T11:31:10;94874.78;;;16.69;65.36
59009;BME280;44794;42.652;23.318;2023-05-09T11:33:37;94874.31;;;16.37;65.19
59009;BME280;44794;42.652;23.318;2023-05-09T11:39:06;94879.22;;;17.58;62.98
59009;BME280;44794;42.652;23.318;2023-05-09T11:41:39;94874.91;;;17.40;62.72
59009;BME280;44794;42.652;23.318;2023-05-09T11:44:16;94869.28;;;17.79;62.61
59009;BME280;44794;42.652;23.318;2023-05-09T11:46:43;94881.28;;;17.99;60.30
59009;BME280;44794;42.652;23.318;2023-05-09T11:49:08;94876.34;;;17.96;61.15
59009;BME280;44794;42.652;23.318;2023-05-09T11:51:37;94881.00;;;17.40;61.84
59009;BME280;44794;42.652;23.318;2023-05-09T11:54:04;94872.69;;;16.72;65.57
59009;BME280;44794;42.652;23.318;2023-05-09T11:56:31;94863.25;;;16.89;65.33
59009;BME280;44794;42.652;23.318;2023-05-09T11:58:57;94867.63;;;17.34;62.39
59009;BME280;44794;42.652;23.318;2023-05-09T12:01:23;94868.00;;;17.66;60.97
59009;BME280;44794;42.652;23.318;2023-05-09T12:03:49;94877.28;;;17.60;60.22
59009;BME280;44794;42.652;23.318;2023-05-09T12:06:18;94871.47;;;17.84;58.49
59009;BME280;44794;42.652;23.318;2023-05-09T12:08:44;94874.66;;;16.97;61.66
59009;BME280;44794;42.652;23.318;2023-05-09T12:11:11;94875.91;;;16.66;63.81
59009;BME280;44794;42.652;23.318;2023-05-09T12:13:47;94872.66;;;16.82;64.27
59009;BME280;44794;42.652;23.318;2023-05-09T12:16:14;94870.59;;;16.85;63.54
59009;BME280;44794;42.652;23.318;2023-05-09T12:18:50;94873.72;;;16.53;64.77
59009;BME280;44794;42.652;23.318;2023-05-09T12:21:17;94874.59;;;16.34;64.92
59009;BME280;44794;42.652;23.318;2023-05-09T12:23:44;94876.22;;;16.45;64.11
59009;BME280;44794;42.652;23.318;2023-05-09T12:26:10;94873.06;;;15.66;67.21
59009;BME280;44794;42.652;23.318;2023-05-09T12:28:36;94866.75;;;15.19;68.71
59009;BME280;44794;42.652;23.318;2023-05-09T12:31:04;94868.28;;;14.92;71.50
59009;BME280;44794;42.652;23.318;2023-05-09T12:33:30;94859.03;;;14.79;72.04
59009;BME280;44794;42.652;23.318;2023-05-09T12:36:07;94857.69;;;14.54;73.11
59009;BME280;44794;42.652;23.318;2023-05-09T12:38:33;94851.47;;;14.26;75.30
59009;BME280;44794;42.652;23.318;2023-05-09T12:41:03;94845.81;;;14.10;76.50
59009;BME280;44794;42.652;23.318;2023-05-09T12:43:38;94848.38;;;14.00;77.27
59009;BME280;44794;42.652;23.318;2023-05-09T12:46:04;94846.38;;;13.72;78.51
59009;BME280;44794;42.652;23.318;2023-05-09T12:48:34;94844.84;;;13.70;79.36
59009;BME280;44794;42.652;23.318;2023-05-09T12:51:03;94842.19;;;13.49;80.43
59009;BME280;44794;42.652;23.318;2023-05-09T12:53:28;94840.44;;;13.50;80.84
59009;BME280;44794;42.652;23.318;2023-05-09T12:56:17;94840.44;;;13.50;80.79
59009;BME280;44794;42.652;23.318;2023-05-09T12:58:53;94830.72;;;13.72;80.39
59009;BME280;44794;42.652;23.318;2023-05-09T13:01:26;94834.88;;;13.75;80.50
59009;BME280;44794;42.652;23.318;2023-05-09T13:04:00;94832.03;;;13.67;80.97
59009;BME280;44794;42.652;23.318;2023-05-09T13:06:25;94834.81;;;13.86;80.32
59009;BME280;44794;42.652;23.318;2023-05-09T13:08:58;94825.03;;;14.19;79.36
59009;BME280;44794;42.652;23.318;2023-05-09T13:11:24;94823.34;;;14.38;77.71
59009;BME280;44794;42.652;23.318;2023-05-09T13:13:50;94824.94;;;14.60;77.80